createdAt,value
2018-07-09T00:02:05.963Z,88.40
2018-07-09T00:04:34.096Z,86.40
2018-07-09T00:07:02.103Z,87.50
2018-07-09T00:09:30.122Z,86.50
2018-07-09T00:11:58.138Z,87.40
2018-07-09T00:14:26.178Z,89.90
2018-07-09T00:16:54.219Z,90.20
2018-07-09T00:19:22.235Z,89.80
2018-07-09T00:21:50.249Z,90.50
2018-07-09T00:24:18.262Z,91.60
2018-07-09T00:26:46.282Z,90.50
2018-07-09T00:29:14.299Z,90.70
2018-07-09T00:31:42.312Z,91.00
2018-07-09T00:34:10.319Z,91.30
2018-07-09T00:36:38.342Z,91.00
2018-07-09T00:39:06.602Z,92.50
2018-07-09T00:41:35.812Z,91.60
2018-07-09T00:44:03.830Z,91.80
2018-07-09T00:46:31.847Z,92.70
2018-07-09T00:49:00.327Z,92.20
2018-07-09T00:51:28.346Z,91.80
2018-07-09T00:53:56.354Z,92.80
2018-07-09T00:58:52.316Z,92.40
2018-07-09T01:01:20.333Z,92.70
2018-07-09T01:06:16.167Z,94.50
2018-07-09T01:08:44.603Z,93.60
2018-07-09T01:11:24.010Z,94.80
2018-07-09T01:16:20.055Z,94.50
2018-07-09T01:18:48.070Z,95.20
2018-07-09T01:21:16.104Z,95.00
2018-07-09T01:23:43.476Z,94.50
2018-07-09T01:26:11.493Z,95.10
2018-07-09T01:28:40.547Z,96.10
2018-07-09T01:31:08.579Z,96.00
2018-07-09T01:33:36.761Z,95.20
2018-07-09T01:36:04.201Z,94.90
2018-07-09T01:41:11.430Z,95.10
2018-07-09T01:43:39.462Z,96.20
2018-07-09T01:46:07.498Z,96.70
2018-07-09T01:48:35.526Z,96.30
2018-07-09T01:51:03.562Z,96.70
2018-07-09T01:53:31.583Z,96.80
2018-07-09T01:55:59.610Z,97.10
2018-07-09T01:58:27.707Z,97.20
2018-07-09T02:00:55.764Z,97.60
2018-07-09T02:03:23.783Z,98.00
2018-07-09T02:05:51.806Z,97.00
2018-07-09T02:08:19.818Z,96.80
2018-07-09T02:10:47.855Z,98.50
2018-07-09T02:13:15.871Z,97.30
2018-07-09T02:15:43.913Z,97.60
2018-07-09T02:18:11.926Z,97.50
2018-07-09T02:20:39.943Z,99.20
2018-07-09T02:23:07.975Z,98.90
2018-07-09T02:25:36.018Z,99.20
2018-07-09T02:28:04.039Z,99.90
2018-07-09T02:30:32.066Z,99.90
2018-07-09T02:33:00.087Z,99.90
2018-07-09T02:35:28.107Z,99.90
2018-07-09T02:37:56.134Z,99.90
2018-07-09T02:40:24.166Z,99.90
2018-07-09T02:45:19.993Z,99.70
2018-07-09T02:47:48.095Z,99.90
2018-07-09T02:50:16.167Z,99.90
2018-07-09T02:52:44.206Z,99.90
2018-07-09T02:55:12.234Z,99.90
2018-07-09T02:57:40.279Z,99.90
2018-07-09T03:00:08.287Z,99.90
2018-07-09T03:02:36.319Z,99.90
2018-07-09T03:05:04.367Z,99.90
2018-07-09T03:07:32.394Z,99.90
2018-07-09T03:10:00.426Z,99.90
2018-07-09T03:12:28.447Z,99.90
2018-07-09T03:14:56.469Z,99.90
2018-07-09T03:17:24.498Z,99.90
2018-07-09T03:19:52.583Z,99.90
2018-07-09T03:22:20.596Z,99.90
2018-07-09T03:24:48.611Z,99.90
2018-07-09T03:27:16.630Z,99.90
2018-07-09T03:32:12.477Z,99.90
2018-07-09T03:34:40.486Z,99.90
2018-07-09T03:37:08.508Z,99.90
2018-07-09T03:39:36.574Z,99.90
2018-07-09T03:42:04.634Z,99.90
2018-07-09T03:44:32.674Z,99.90
2018-07-09T03:47:00.698Z,99.90
2018-07-09T03:49:28.715Z,99.90
2018-07-09T03:51:56.734Z,99.90
2018-07-09T03:54:24.105Z,99.90
2018-07-09T03:56:51.609Z,99.90
2018-07-09T03:59:18.979Z,99.90
2018-07-09T04:01:46.345Z,99.90
2018-07-09T04:04:13.711Z,99.90
2018-07-09T04:06:41.110Z,99.90
2018-07-09T04:09:09.134Z,99.90
2018-07-09T04:11:37.150Z,99.90
2018-07-09T04:14:04.542Z,99.90
2018-07-09T04:16:32.597Z,99.90
2018-07-09T04:18:59.978Z,99.90
2018-07-09T04:21:28.007Z,99.90
2018-07-09T04:23:56.035Z,99.90
2018-07-09T04:26:23.430Z,99.90
2018-07-09T04:28:51.442Z,99.90
2018-07-09T04:31:19.458Z,99.90
2018-07-09T04:33:47.491Z,99.90
2018-07-09T04:36:14.862Z,99.90
2018-07-09T04:38:42.885Z,99.90
2018-07-09T04:41:10.925Z,99.90
2018-07-09T04:43:38.934Z,99.90
2018-07-09T04:46:07.185Z,99.90
2018-07-09T04:48:35.205Z,99.90
2018-07-09T04:51:03.227Z,99.90
2018-07-09T04:53:31.293Z,99.90
2018-07-09T04:55:59.287Z,99.90
2018-07-09T04:58:27.296Z,99.90
2018-07-09T05:00:55.321Z,99.90
2018-07-09T05:03:23.335Z,99.90
2018-07-09T05:05:50.694Z,99.90
2018-07-09T05:08:18.722Z,99.90
2018-07-09T05:13:13.910Z,99.90
2018-07-09T05:18:09.098Z,99.90
2018-07-09T05:20:36.500Z,99.90
2018-07-09T05:23:04.499Z,99.90
2018-07-09T05:25:32.526Z,99.90
2018-07-09T05:27:59.894Z,99.90
2018-07-09T05:30:27.245Z,99.90
2018-07-09T05:32:54.610Z,99.90
2018-07-09T05:35:21.970Z,99.90
2018-07-09T05:37:49.347Z,99.90
2018-07-09T05:40:16.709Z,99.90
2018-07-09T05:42:44.366Z,99.90
2018-07-09T05:45:11.731Z,99.90
2018-07-09T05:47:39.090Z,99.90
2018-07-09T05:50:06.470Z,99.90
2018-07-09T05:52:33.831Z,99.90
2018-07-09T05:55:01.191Z,99.90
2018-07-09T05:57:28.550Z,99.90
2018-07-09T05:59:56.570Z,99.90
2018-07-09T06:02:23.933Z,99.90
2018-07-09T06:04:51.310Z,99.90
2018-07-09T06:07:18.758Z,99.90
2018-07-09T06:12:13.930Z,99.90
2018-07-09T06:14:41.294Z,99.90
2018-07-09T06:22:03.242Z,99.90
2018-07-09T06:24:30.610Z,99.90
2018-07-09T06:26:57.978Z,99.90
2018-07-09T06:29:25.334Z,99.90
2018-07-09T06:31:52.689Z,99.90
2018-07-09T06:34:20.058Z,99.90
2018-07-09T06:36:47.418Z,99.90
2018-07-09T06:39:15.439Z,99.90
2018-07-09T06:41:43.471Z,99.90
2018-07-09T06:44:10.843Z,99.90
2018-07-09T06:46:38.211Z,99.90
2018-07-09T06:49:06.230Z,99.90
2018-07-09T06:51:34.243Z,99.90
2018-07-09T06:54:02.263Z,99.90
2018-07-09T06:56:30.287Z,99.90
2018-07-09T06:58:58.397Z,99.50
2018-07-09T07:01:25.754Z,99.20
2018-07-09T07:03:53.775Z,99.90
2018-07-09T07:06:21.799Z,99.70
2018-07-09T07:08:49.888Z,98.90
2018-07-09T07:11:17.172Z,99.90
2018-07-09T07:13:44.528Z,99.90
2018-07-09T07:16:11.890Z,98.90
2018-07-09T07:18:39.907Z,98.50
2018-07-09T07:21:07.301Z,97.60
2018-07-09T07:23:35.286Z,99.10
2018-07-09T07:28:30.462Z,98.60
2018-07-09T07:33:25.009Z,99.70
2018-07-09T07:35:52.426Z,98.50
2018-07-09T07:38:20.022Z,97.40
2018-07-09T07:40:48.038Z,97.60
2018-07-09T07:43:16.054Z,97.20
2018-07-09T07:45:43.422Z,97.50
2018-07-09T07:48:10.790Z,96.40
2018-07-09T07:50:38.248Z,96.30
2018-07-09T07:53:05.746Z,97.50
2018-07-09T07:55:33.105Z,97.10
2018-07-09T07:58:00.477Z,96.90
2018-07-09T08:00:27.842Z,97.00
2018-07-09T08:02:55.266Z,96.10
2018-07-09T08:05:22.573Z,96.10
2018-07-09T08:07:49.938Z,96.20
2018-07-09T08:10:17.298Z,95.80
2018-07-09T08:15:11.826Z,96.20
2018-07-09T08:17:39.189Z,96.00
2018-07-09T08:20:06.582Z,96.60
2018-07-09T08:22:33.942Z,97.00
2018-07-09T08:25:02.078Z,96.10
2018-07-09T08:27:29.356Z,95.40
2018-07-09T08:29:56.718Z,95.90
2018-07-09T08:32:24.253Z,96.30
2018-07-09T08:34:52.539Z,95.90
2018-07-09T08:37:19.907Z,96.60
2018-07-09T08:39:47.261Z,95.40
2018-07-09T08:42:14.637Z,95.70
2018-07-09T08:44:43.094Z,95.10
2018-07-09T08:47:11.318Z,95.40
2018-07-09T08:49:39.330Z,94.90
2018-07-09T08:54:35.178Z,95.30
2018-07-09T08:57:03.577Z,95.80
2018-07-09T08:59:30.954Z,95.00
2018-07-09T09:01:58.318Z,94.40
2018-07-09T09:04:25.686Z,93.70
2018-07-09T09:06:53.042Z,93.80
2018-07-09T09:09:20.401Z,92.60
2018-07-09T09:14:14.929Z,94.30
2018-07-09T09:16:42.289Z,92.90
2018-07-09T09:19:09.658Z,92.80
2018-07-09T09:21:37.024Z,93.20
2018-07-09T09:24:04.389Z,94.00
2018-07-09T09:26:31.758Z,94.50
2018-07-09T09:28:59.118Z,93.80
2018-07-09T09:31:26.486Z,93.40
2018-07-09T09:33:53.838Z,93.50
2018-07-09T09:36:21.218Z,93.60
2018-07-09T09:38:48.578Z,92.80
2018-07-09T09:41:15.938Z,92.90
2018-07-09T09:43:43.297Z,92.50
2018-07-09T09:46:10.678Z,92.10
2018-07-09T09:48:38.038Z,92.10
2018-07-09T09:51:05.528Z,91.50
2018-07-09T09:53:33.635Z,90.80
2018-07-09T09:58:28.146Z,90.40
2018-07-09T10:00:56.166Z,91.50
2018-07-09T10:05:50.677Z,92.00
2018-07-09T10:08:18.038Z,90.40
2018-07-09T10:10:45.710Z,90.20
2018-07-09T10:13:13.737Z,90.20
2018-07-09T10:15:41.766Z,92.00
2018-07-09T10:18:09.783Z,90.60
2018-07-09T10:20:37.158Z,90.00
2018-07-09T10:23:05.372Z,89.30
2018-07-09T10:25:32.545Z,89.00
2018-07-09T10:27:59.902Z,89.00
2018-07-09T10:30:27.946Z,88.80
2018-07-09T10:32:55.945Z,89.40
2018-07-09T10:35:23.981Z,88.80
2018-07-09T10:37:51.985Z,86.80
2018-07-09T10:40:20.015Z,87.60
2018-07-09T10:42:48.026Z,89.10
2018-07-09T10:45:15.387Z,85.40
2018-07-09T10:47:42.748Z,89.40
2018-07-09T10:50:10.771Z,89.70
2018-07-09T10:52:38.129Z,83.80
2018-07-09T10:55:06.174Z,83.60
2018-07-09T10:57:34.187Z,84.00
2018-07-09T11:00:02.199Z,81.90
2018-07-09T11:02:29.557Z,83.80
2018-07-09T11:04:56.937Z,81.40
2018-07-09T11:07:24.298Z,79.10
2018-07-09T11:09:51.669Z,78.40
2018-07-09T11:12:19.031Z,80.90
2018-07-09T11:14:47.038Z,76.10
2018-07-09T11:17:14.450Z,76.90
2018-07-09T11:19:41.828Z,74.80
2018-07-09T11:22:09.196Z,74.00
2018-07-09T11:24:36.557Z,76.40
2018-07-09T11:29:31.334Z,75.70
2018-07-09T11:31:58.689Z,78.30
2018-07-09T11:34:26.713Z,73.10
2018-07-09T11:36:54.074Z,69.50
2018-07-09T11:39:21.454Z,70.90
2018-07-09T11:41:49.475Z,70.90
2018-07-09T11:44:16.850Z,68.70
2018-07-09T11:46:44.213Z,67.70
2018-07-09T11:49:11.565Z,67.30
2018-07-09T11:51:38.937Z,67.90
2018-07-09T11:54:06.445Z,66.40
2018-07-09T11:56:33.814Z,69.70
2018-07-09T11:59:01.200Z,69.20
2018-07-09T12:01:28.537Z,65.70
2018-07-09T12:03:55.910Z,63.40
2018-07-09T12:06:23.273Z,64.10
2018-07-09T12:08:50.634Z,65.00
2018-07-09T12:11:18.049Z,64.20
2018-07-09T12:13:45.363Z,63.10
2018-07-09T12:16:12.730Z,64.50
2018-07-09T12:21:07.907Z,64.50
2018-07-09T12:23:35.278Z,64.00
2018-07-09T12:26:02.634Z,60.70
2018-07-09T12:28:29.998Z,60.10
2018-07-09T12:30:57.357Z,59.80
2018-07-09T12:33:25.366Z,59.40
2018-07-09T12:35:53.386Z,59.00
2018-07-09T12:40:49.199Z,58.10
2018-07-09T12:45:45.011Z,55.50
2018-07-09T12:48:13.030Z,57.00
2018-07-09T12:50:41.070Z,58.30
2018-07-09T12:53:08.541Z,60.50
2018-07-09T13:00:30.194Z,60.30
2018-07-09T13:02:57.585Z,58.70
2018-07-09T13:05:24.962Z,60.50
2018-07-09T13:07:53.003Z,58.20
2018-07-09T13:12:47.513Z,57.60
2018-07-09T13:15:14.870Z,58.80
2018-07-09T13:17:42.226Z,59.40
2018-07-09T13:20:09.591Z,58.90
2018-07-09T13:22:36.953Z,62.70
2018-07-09T13:25:04.305Z,63.70
2018-07-09T13:27:31.665Z,64.40
2018-07-09T13:29:59.017Z,60.10
2018-07-09T13:32:26.381Z,58.10
2018-07-09T13:34:53.746Z,56.70
2018-07-09T13:37:21.767Z,57.70
2018-07-09T13:39:49.783Z,62.00
2018-07-09T13:42:17.789Z,55.50
2018-07-09T13:44:45.807Z,54.90
2018-07-09T13:47:13.826Z,57.00
2018-07-09T13:49:41.185Z,53.60
2018-07-09T13:52:08.550Z,53.70
2018-07-09T13:54:36.000Z,55.40
2018-07-09T13:57:03.310Z,57.40
2018-07-09T13:59:30.674Z,59.00
2018-07-09T14:01:58.967Z,55.70
2018-07-09T14:06:54.811Z,54.00
2018-07-09T14:09:22.850Z,53.60
2018-07-09T14:11:50.866Z,54.90
2018-07-09T14:14:18.870Z,55.70
2018-07-09T14:16:46.882Z,53.70
2018-07-09T14:19:26.418Z,52.10
2018-07-09T14:21:54.464Z,52.10
2018-07-09T14:24:21.815Z,52.40
2018-07-09T14:26:49.166Z,53.40
2018-07-09T14:29:16.682Z,53.70
2018-07-09T14:31:44.077Z,53.50
2018-07-09T14:34:11.444Z,52.00
2018-07-09T14:36:38.802Z,52.30
2018-07-09T14:39:06.352Z,53.70
2018-07-09T14:41:33.705Z,55.50
2018-07-09T14:46:29.083Z,51.40
2018-07-09T14:48:56.474Z,52.00
2018-07-09T14:51:23.866Z,50.90
2018-07-09T14:56:19.066Z,51.50
2018-07-09T14:58:46.422Z,51.00
2018-07-09T15:01:13.777Z,52.00
2018-07-09T15:03:41.146Z,53.70
2018-07-09T15:06:08.538Z,50.00
2018-07-09T15:08:35.926Z,53.50
2018-07-09T15:11:03.943Z,50.50
2018-07-09T15:13:31.951Z,52.20
2018-07-09T15:16:00.075Z,49.50
2018-07-09T15:18:27.439Z,50.20
2018-07-09T15:20:54.797Z,49.80
2018-07-09T15:23:22.162Z,49.20
2018-07-09T15:28:16.705Z,48.00
2018-07-09T15:30:44.718Z,48.70
2018-07-09T15:33:12.078Z,49.50
2018-07-09T15:35:39.450Z,49.00
2018-07-09T15:38:06.811Z,49.80
2018-07-09T15:40:34.175Z,49.60
2018-07-09T15:43:01.534Z,49.10
2018-07-09T15:45:28.903Z,48.30
2018-07-09T15:47:56.270Z,49.30
2018-07-09T15:52:50.788Z,48.60
2018-07-09T15:55:18.152Z,48.70
2018-07-09T15:57:46.163Z,47.80
2018-07-09T16:00:14.180Z,46.00
2018-07-09T16:02:41.535Z,46.50
2018-07-09T16:05:08.959Z,46.30
2018-07-09T16:07:36.311Z,47.30
2018-07-09T16:10:03.877Z,48.60
2018-07-09T16:12:31.890Z,48.00
2018-07-09T16:14:59.270Z,48.60
2018-07-09T16:17:27.277Z,49.60
2018-07-09T16:19:55.293Z,48.20
2018-07-09T16:22:22.668Z,47.10
2018-07-09T16:24:50.031Z,47.40
2018-07-09T16:27:17.386Z,46.80
2018-07-09T16:29:44.746Z,47.30
2018-07-09T16:32:12.106Z,47.30
2018-07-09T16:34:39.466Z,46.50
2018-07-09T16:37:07.078Z,46.30
2018-07-09T16:39:34.459Z,45.90
2018-07-09T16:42:01.798Z,46.10
2018-07-09T16:44:29.158Z,46.50
2018-07-09T16:46:56.551Z,46.60
2018-07-09T16:49:23.890Z,46.60
2018-07-09T16:51:51.249Z,46.30
2018-07-09T16:54:18.609Z,47.00
2018-07-09T16:56:45.969Z,47.10
2018-07-09T17:01:40.498Z,47.00
2018-07-09T17:04:07.867Z,47.60
2018-07-09T17:06:35.310Z,47.10
2018-07-09T17:09:03.782Z,46.70
2018-07-09T17:13:59.602Z,46.20
2018-07-09T17:16:27.626Z,48.00
2018-07-09T17:18:55.642Z,48.20
2018-07-09T17:21:23.667Z,48.70
2018-07-09T17:23:51.674Z,49.70
2018-07-09T17:26:19.768Z,50.40
2018-07-09T17:28:47.767Z,50.10
2018-07-09T17:31:15.127Z,49.90
2018-07-09T17:33:43.146Z,50.20
2018-07-09T17:36:10.515Z,50.80
2018-07-09T17:38:37.891Z,50.80
2018-07-09T17:43:32.566Z,51.00
2018-07-09T17:48:28.406Z,50.80
2018-07-09T17:50:56.427Z,51.20
2018-07-09T17:53:24.464Z,51.30
2018-07-09T17:55:51.838Z,51.20
2018-07-09T18:00:47.789Z,51.50
2018-07-09T18:03:15.189Z,51.30
2018-07-09T18:08:10.371Z,52.10
2018-07-09T18:10:38.431Z,52.20
2018-07-09T18:13:05.761Z,52.60
2018-07-09T18:15:33.825Z,52.90
2018-07-09T18:18:01.816Z,52.90
2018-07-09T18:20:29.846Z,53.80
2018-07-09T18:25:25.716Z,54.40
2018-07-09T18:27:53.747Z,54.20
2018-07-09T18:30:21.792Z,54.30
2018-07-09T18:32:49.805Z,54.50
2018-07-09T18:35:17.889Z,54.90
2018-07-09T18:37:45.874Z,54.90
2018-07-09T18:40:13.912Z,54.60
2018-07-09T18:42:41.947Z,55.20
2018-07-09T18:45:09.998Z,55.60
2018-07-09T18:47:38.038Z,56.00
2018-07-09T18:50:06.125Z,56.10
2018-07-09T18:52:34.138Z,56.00
2018-07-09T18:55:02.163Z,56.50
2018-07-09T18:57:30.178Z,56.00
2018-07-09T18:59:58.209Z,56.40
2018-07-09T19:02:26.231Z,56.50
2018-07-09T19:04:54.270Z,57.00
2018-07-09T19:07:22.847Z,57.20
2018-07-09T19:09:51.149Z,57.60
2018-07-09T19:12:19.190Z,57.40
2018-07-09T19:14:48.143Z,56.80
2018-07-09T19:18:27.841Z,56.80
2018-07-09T19:23:22.091Z,56.60
2018-07-09T19:28:16.593Z,55.20
2018-07-09T19:30:43.639Z,54.80
2018-07-09T19:33:10.747Z,56.00
2018-07-09T19:38:05.207Z,55.50
2018-07-09T19:42:59.683Z,54.70
2018-07-09T19:45:26.786Z,54.90
2018-07-09T19:47:53.953Z,55.00
2018-07-09T19:50:21.006Z,55.10
2018-07-09T19:52:48.102Z,54.60
2018-07-09T19:55:14.993Z,54.90
2018-07-09T19:57:42.102Z,55.40
2018-07-09T20:00:09.225Z,55.10
2018-07-09T20:02:36.318Z,54.90
2018-07-09T20:05:03.493Z,55.60
2018-07-09T20:07:30.535Z,56.80
2018-07-09T20:10:03.078Z,55.60
2018-07-09T20:12:35.498Z,56.20
2018-07-09T20:15:08.166Z,55.80
2018-07-09T20:17:36.110Z,56.40
2018-07-09T20:20:03.202Z,56.60
2018-07-09T20:22:30.746Z,55.60
2018-07-09T20:24:57.850Z,55.80
2018-07-09T20:27:24.946Z,55.80
2018-07-09T20:29:52.058Z,56.50
2018-07-09T20:32:19.159Z,56.70
2018-07-09T20:34:46.266Z,56.60
2018-07-09T20:37:13.391Z,56.20
2018-07-09T20:39:40.525Z,56.20
2018-07-09T20:42:07.599Z,56.30
2018-07-09T20:44:34.694Z,57.30
2018-07-09T20:47:01.792Z,57.60
2018-07-09T20:49:28.894Z,56.40
2018-07-09T20:51:56.054Z,58.20
2018-07-09T20:54:23.230Z,57.30
2018-07-09T20:56:50.397Z,57.90
2018-07-09T20:59:17.498Z,59.00
2018-07-09T21:01:44.624Z,59.20
2018-07-09T21:04:17.034Z,59.80
2018-07-09T21:06:44.266Z,59.70
2018-07-09T21:09:11.154Z,60.10
2018-07-09T21:11:38.061Z,61.70
2018-07-09T21:14:04.960Z,62.30
2018-07-09T21:16:31.837Z,62.60
2018-07-09T21:18:58.762Z,63.40
2018-07-09T21:21:28.022Z,64.00
2018-07-09T21:23:55.499Z,64.20
2018-07-09T21:26:22.861Z,63.00
2018-07-09T21:28:50.132Z,63.20
2018-07-09T21:31:17.047Z,63.30
2018-07-09T21:33:44.245Z,63.50
2018-07-09T21:36:11.782Z,62.90
2018-07-09T21:38:39.206Z,62.70
2018-07-09T21:41:06.090Z,61.90
2018-07-09T21:43:33.077Z,62.50
2018-07-09T21:46:00.102Z,62.50
2018-07-09T21:48:29.783Z,62.20
2018-07-09T21:50:54.063Z,62.40
2018-07-09T21:53:21.734Z,62.50
2018-07-09T21:55:48.630Z,63.50
2018-07-09T21:58:15.739Z,62.60
2018-07-09T22:03:09.801Z,63.20
2018-07-09T22:08:03.846Z,63.50
2018-07-09T22:10:30.962Z,63.80
2018-07-09T22:12:57.860Z,64.60
2018-07-09T22:15:24.746Z,65.10
2018-07-09T22:17:51.646Z,65.20
2018-07-09T22:20:18.546Z,65.80
2018-07-09T22:22:45.442Z,65.70
2018-07-09T22:25:12.542Z,65.90
2018-07-09T22:27:39.433Z,66.10
2018-07-09T22:30:06.528Z,66.30
2018-07-09T22:32:34.558Z,66.70
2018-07-09T22:35:02.570Z,66.90
2018-07-09T22:37:30.696Z,66.80
2018-07-09T22:39:58.768Z,67.00
2018-07-09T22:42:26.742Z,67.60
2018-07-09T22:44:54.751Z,67.60
2018-07-09T22:47:22.787Z,67.60
2018-07-09T22:49:50.149Z,68.20
2018-07-09T22:52:17.505Z,67.70
2018-07-09T22:57:12.029Z,68.20
2018-07-09T22:59:39.429Z,68.30
2018-07-09T23:02:07.498Z,69.10
2018-07-09T23:04:35.510Z,68.90
2018-07-09T23:07:03.534Z,68.80
2018-07-09T23:10:46.414Z,70.00
2018-07-09T23:15:59.354Z,69.80
2018-07-09T23:18:39.027Z,69.90
2018-07-09T23:21:43.617Z,70.00
2018-07-09T23:24:10.931Z,70.40
2018-07-09T23:26:37.853Z,70.20
2018-07-09T23:29:05.199Z,70.50
2018-07-09T23:31:32.322Z,70.70
2018-07-09T23:33:59.218Z,71.10
2018-07-09T23:36:26.321Z,71.40
2018-07-09T23:38:53.726Z,71.50
2018-07-09T23:41:20.618Z,71.90
2018-07-09T23:46:15.049Z,72.20
2018-07-09T23:48:42.148Z,72.80
2018-07-09T23:51:09.272Z,72.70
2018-07-09T23:53:36.367Z,72.90
2018-07-09T23:56:10.509Z,73.90
2018-07-09T23:59:51.898Z,74.20
